createdAt,value
2018-07-01T00:00:47.964Z,46.16
2018-07-01T00:03:17.248Z,46.08
2018-07-01T00:05:46.610Z,46.02
2018-07-01T00:08:15.933Z,46.32
2018-07-01T00:10:45.304Z,46.18
2018-07-01T00:13:14.328Z,46.15
2018-07-01T00:15:43.653Z,46.10
2018-07-01T00:18:12.732Z,45.90
2018-07-01T00:20:41.807Z,45.25
2018-07-01T00:23:11.130Z,45.56
2018-07-01T00:25:40.214Z,45.36
2018-07-01T00:28:09.560Z,45.28
2018-07-01T00:30:38.880Z,45.80
2018-07-01T00:33:08.208Z,45.60
2018-07-01T00:35:37.543Z,45.53
2018-07-01T00:38:06.879Z,46.02
2018-07-01T00:40:36.202Z,45.51
2018-07-01T00:43:05.523Z,45.35
2018-07-01T00:45:34.839Z,46.75
2018-07-01T00:48:03.939Z,45.30
2018-07-01T00:50:33.236Z,45.72
2018-07-01T00:53:02.557Z,45.26
2018-07-01T00:55:31.897Z,45.88
2018-07-01T00:58:01.276Z,45.12
2018-07-01T01:00:33.907Z,45.92
2018-07-01T01:03:03.760Z,46.04
2018-07-01T01:05:33.634Z,45.96
2018-07-01T01:08:02.721Z,46.63
2018-07-01T01:10:31.788Z,46.01
2018-07-01T01:13:01.100Z,46.00
2018-07-01T01:15:30.438Z,46.63
2018-07-01T01:17:59.761Z,47.09
2018-07-01T01:20:29.092Z,46.74
2018-07-01T01:22:58.419Z,46.73
2018-07-01T01:25:27.493Z,47.56
2018-07-01T01:27:56.832Z,47.02
2018-07-01T01:30:26.147Z,47.32
2018-07-01T01:32:55.481Z,46.39
2018-07-01T01:35:24.792Z,45.52
2018-07-01T01:37:54.107Z,45.95
2018-07-01T01:40:26.383Z,45.83
2018-07-01T01:42:59.605Z,46.47
2018-07-01T01:45:33.601Z,45.75
2018-07-01T01:48:10.892Z,46.72
2018-07-01T01:50:44.493Z,46.40
2018-07-01T01:53:19.520Z,47.10
2018-07-01T01:56:51.859Z,46.96
2018-07-01T01:59:26.564Z,47.36
2018-07-01T02:02:07.013Z,47.50
2018-07-01T02:04:55.352Z,47.24
2018-07-01T02:07:30.774Z,47.02
2018-07-01T02:10:00.116Z,46.75
2018-07-01T02:12:29.449Z,46.97
2018-07-01T02:15:02.446Z,47.15
2018-07-01T02:17:37.096Z,48.04
2018-07-01T02:20:06.709Z,47.67
2018-07-01T02:22:39.192Z,47.70
2018-07-01T02:25:18.521Z,47.42
2018-07-01T02:27:47.846Z,46.94
2018-07-01T02:30:17.182Z,48.19
2018-07-01T02:32:46.707Z,47.59
2018-07-01T02:35:16.053Z,48.47
2018-07-01T02:37:45.362Z,48.61
2018-07-01T02:40:14.700Z,48.47
2018-07-01T02:42:44.021Z,47.87
2018-07-01T02:45:13.192Z,48.11
2018-07-01T02:47:42.252Z,48.74
2018-07-01T02:50:11.575Z,48.01
2018-07-01T02:52:40.884Z,49.15
2018-07-01T02:55:09.972Z,48.53
2018-07-01T02:57:39.284Z,48.73
2018-07-01T03:00:09.087Z,48.77
2018-07-01T03:02:38.403Z,50.32
2018-07-01T03:05:07.477Z,49.12
2018-07-01T03:07:36.785Z,49.60
2018-07-01T03:10:06.144Z,49.15
2018-07-01T03:12:35.474Z,49.91
2018-07-01T03:15:04.852Z,50.31
2018-07-01T03:17:34.401Z,49.38
2018-07-01T03:20:03.513Z,49.02
2018-07-01T03:22:32.828Z,49.98
2018-07-01T03:25:02.174Z,49.30
2018-07-01T03:27:31.499Z,49.75
2018-07-01T03:30:00.624Z,50.37
2018-07-01T03:32:29.943Z,50.37
2018-07-01T03:34:59.272Z,50.54
2018-07-01T03:37:28.692Z,50.35
2018-07-01T03:39:58.003Z,49.82
2018-07-01T03:42:27.327Z,51.35
2018-07-01T03:44:56.660Z,51.31
2018-07-01T03:47:25.972Z,50.75
2018-07-01T03:49:55.297Z,51.08
2018-07-01T03:52:24.621Z,51.32
2018-07-01T03:54:53.956Z,51.36
2018-07-01T03:57:23.334Z,51.24
2018-07-01T03:59:52.665Z,51.44
2018-07-01T04:02:21.980Z,51.58
2018-07-01T04:04:51.317Z,52.27
2018-07-01T04:07:20.684Z,52.25
2018-07-01T04:09:49.996Z,51.66
2018-07-01T04:12:19.087Z,51.92
2018-07-01T04:14:48.404Z,50.95
2018-07-01T04:17:17.736Z,52.15
2018-07-01T04:19:47.066Z,52.23
2018-07-01T04:22:16.384Z,51.88
2018-07-01T04:24:45.716Z,52.21
2018-07-01T04:27:15.044Z,52.42
2018-07-01T04:29:44.368Z,52.28
2018-07-01T04:32:13.697Z,52.08
2018-07-01T04:34:42.778Z,52.85
2018-07-01T04:37:12.117Z,52.68
2018-07-01T04:39:41.441Z,52.47
2018-07-01T04:42:10.784Z,53.02
2018-07-01T04:44:40.104Z,52.02
2018-07-01T04:47:09.180Z,52.02
2018-07-01T04:49:38.508Z,52.63
2018-07-01T04:52:08.599Z,52.74
2018-07-01T04:54:37.911Z,51.91
2018-07-01T04:57:06.995Z,53.19
2018-07-01T04:59:36.308Z,52.17
2018-07-01T05:02:05.659Z,52.02
2018-07-01T05:04:34.980Z,52.11
2018-07-01T05:07:04.347Z,51.93
2018-07-01T05:09:33.681Z,51.41
2018-07-01T05:12:03.013Z,51.42
2018-07-01T05:14:32.094Z,52.73
2018-07-01T05:17:01.427Z,51.89
2018-07-01T05:19:30.740Z,52.14
2018-07-01T05:22:00.072Z,51.82
2018-07-01T05:24:29.384Z,51.98
2018-07-01T05:26:58.713Z,50.87
2018-07-01T05:29:28.048Z,50.94
2018-07-01T05:31:57.394Z,50.50
2018-07-01T05:34:26.709Z,50.41
2018-07-01T05:36:55.934Z,51.10
2018-07-01T05:39:25.244Z,49.98
2018-07-01T05:41:54.576Z,49.68
2018-07-01T05:44:23.904Z,49.56
2018-07-01T05:46:52.984Z,49.64
2018-07-01T05:49:22.313Z,49.33
2018-07-01T05:51:51.380Z,49.63
2018-07-01T05:54:20.719Z,49.60
2018-07-01T05:56:50.087Z,49.11
2018-07-01T05:59:19.369Z,49.43
2018-07-01T06:01:48.724Z,49.71
2018-07-01T06:04:18.064Z,48.79
2018-07-01T06:06:47.386Z,48.83
2018-07-01T06:09:16.713Z,48.63
2018-07-01T06:11:46.300Z,49.80
2018-07-01T06:14:15.388Z,49.06
2018-07-01T06:16:44.724Z,48.65
2018-07-01T06:19:14.064Z,48.24
2018-07-01T06:21:43.395Z,48.66
2018-07-01T06:24:12.517Z,48.63
2018-07-01T06:26:41.863Z,48.46
2018-07-01T06:29:11.197Z,47.93
2018-07-01T06:31:40.280Z,48.28
2018-07-01T06:34:09.611Z,48.55
2018-07-01T06:36:38.934Z,48.01
2018-07-01T06:39:09.936Z,47.09
2018-07-01T06:41:39.275Z,46.78
2018-07-01T06:44:09.069Z,47.20
2018-07-01T06:46:38.425Z,46.52
2018-07-01T06:49:07.777Z,46.60
2018-07-01T06:51:37.120Z,46.75
2018-07-01T06:54:06.489Z,46.57
2018-07-01T06:56:35.828Z,46.87
2018-07-01T06:59:05.215Z,47.19
2018-07-01T07:01:34.545Z,46.87
2018-07-01T07:04:03.919Z,46.93
2018-07-01T07:06:33.236Z,46.20
2018-07-01T07:09:02.565Z,45.84
2018-07-01T07:11:31.901Z,46.14
2018-07-01T07:14:01.234Z,45.70
2018-07-01T07:16:30.576Z,46.52
2018-07-01T07:18:59.952Z,47.06
2018-07-01T07:21:29.124Z,47.93
2018-07-01T07:23:58.577Z,46.51
2018-07-01T07:26:27.888Z,45.94
2018-07-01T07:28:57.209Z,45.19
2018-07-01T07:31:26.548Z,45.93
2018-07-01T07:33:55.920Z,45.01
2018-07-01T07:36:25.253Z,44.40
2018-07-01T07:38:54.320Z,45.77
2018-07-01T07:41:23.641Z,45.44
2018-07-01T07:43:52.955Z,45.31
2018-07-01T07:46:22.039Z,44.27
2018-07-01T07:48:51.130Z,44.18
2018-07-01T07:51:20.458Z,44.09
2018-07-01T07:53:49.797Z,45.35
2018-07-01T07:56:19.140Z,44.84
2018-07-01T07:58:48.216Z,43.83
2018-07-01T08:01:17.565Z,43.77
2018-07-01T08:03:46.933Z,42.84
2018-07-01T08:06:16.025Z,40.96
2018-07-01T08:08:45.375Z,42.29
2018-07-01T08:11:14.749Z,41.69
2018-07-01T08:13:44.407Z,41.91
2018-07-01T08:16:13.772Z,40.94
2018-07-01T08:18:43.108Z,40.80
2018-07-01T08:21:12.452Z,41.22
2018-07-01T08:23:41.543Z,41.16
2018-07-01T08:26:10.892Z,41.26
2018-07-01T08:28:40.213Z,42.67
2018-07-01T08:31:09.558Z,41.60
2018-07-01T08:33:38.889Z,41.10
2018-07-01T08:36:09.118Z,42.87
2018-07-01T08:38:38.455Z,42.65
2018-07-01T08:41:07.785Z,42.41
2018-07-01T08:43:37.109Z,42.75
2018-07-01T08:46:06.528Z,41.49
2018-07-01T08:48:35.847Z,41.70
2018-07-01T08:51:05.202Z,41.87
2018-07-01T08:53:34.549Z,41.89
2018-07-01T08:56:03.907Z,43.74
2018-07-01T08:58:33.232Z,42.81
2018-07-01T09:01:02.580Z,41.20
2018-07-01T09:03:31.706Z,40.97
2018-07-01T09:06:01.068Z,41.35
2018-07-01T09:08:30.167Z,41.17
2018-07-01T09:10:59.549Z,41.63
2018-07-01T09:13:28.874Z,41.19
2018-07-01T09:15:57.968Z,40.73
2018-07-01T09:18:27.295Z,40.97
2018-07-01T09:20:56.881Z,38.56
2018-07-01T09:23:26.319Z,37.42
2018-07-01T09:25:55.583Z,38.50
2018-07-01T09:28:24.928Z,39.25
2018-07-01T09:30:54.393Z,38.83
2018-07-01T09:33:23.736Z,39.86
2018-07-01T09:35:53.069Z,38.88
2018-07-01T09:38:22.234Z,39.84
2018-07-01T09:40:51.873Z,38.88
2018-07-01T09:43:21.261Z,38.53
2018-07-01T09:45:50.576Z,38.46
2018-07-01T09:48:19.904Z,38.80
2018-07-01T09:50:49.596Z,39.40
2018-07-01T09:53:18.676Z,38.94
2018-07-01T09:55:48.008Z,41.15
2018-07-01T09:58:17.452Z,38.16
2018-07-01T10:00:46.789Z,39.07
2018-07-01T10:03:16.130Z,36.09
2018-07-01T10:05:45.471Z,37.96
2018-07-01T10:08:15.141Z,37.66
2018-07-01T10:10:44.580Z,37.10
2018-07-01T10:13:13.918Z,38.14
2018-07-01T10:15:43.628Z,37.80
2018-07-01T10:18:13.220Z,37.37
2018-07-01T10:20:42.313Z,37.07
2018-07-01T10:23:11.467Z,36.30
2018-07-01T10:25:41.190Z,36.32
2018-07-01T10:28:10.496Z,37.50
2018-07-01T10:30:40.029Z,38.09
2018-07-01T10:33:09.125Z,37.20
2018-07-01T10:35:38.205Z,37.44
2018-07-01T10:38:08.603Z,36.34
2018-07-01T10:40:37.937Z,38.19
2018-07-01T10:43:07.312Z,31.04
2018-07-01T10:45:36.636Z,36.83
2018-07-01T10:48:06.008Z,36.78
2018-07-01T10:50:35.324Z,36.33
2018-07-01T10:53:04.656Z,36.53
2018-07-01T10:55:33.992Z,33.74
2018-07-01T10:58:03.324Z,35.08
2018-07-01T11:00:32.756Z,34.57
2018-07-01T11:03:01.846Z,35.81
2018-07-01T11:05:30.923Z,35.47
2018-07-01T11:08:00.268Z,35.47
2018-07-01T11:10:29.624Z,35.71
2018-07-01T11:12:58.953Z,30.60
2018-07-01T11:15:28.333Z,34.63
2018-07-01T11:17:57.672Z,35.55
2018-07-01T11:20:27.144Z,35.11
2018-07-01T11:22:56.344Z,34.75
2018-07-01T11:25:25.684Z,34.14
2018-07-01T11:27:55.008Z,32.99
2018-07-01T11:30:24.357Z,33.36
2018-07-01T11:32:53.684Z,33.90
2018-07-01T11:35:23.020Z,33.01
2018-07-01T11:37:52.344Z,31.90
2018-07-01T11:40:21.701Z,33.43
2018-07-01T11:42:51.047Z,31.82
2018-07-01T11:45:20.148Z,32.01
2018-07-01T11:47:49.232Z,31.84
2018-07-01T11:50:18.568Z,34.41
2018-07-01T11:52:47.893Z,32.10
2018-07-01T11:55:17.236Z,29.11
2018-07-01T11:57:46.595Z,31.74
2018-07-01T12:00:15.944Z,31.90
2018-07-01T12:02:45.028Z,31.62
2018-07-01T12:05:16.666Z,32.47
2018-07-01T12:07:43.711Z,31.62
2018-07-01T12:10:13.150Z,29.20
2018-07-01T12:12:42.233Z,30.83
2018-07-01T12:15:11.345Z,30.66
2018-07-01T12:17:40.679Z,31.55
2018-07-01T12:20:10.017Z,29.14
2018-07-01T12:22:39.351Z,28.61
2018-07-01T12:25:08.692Z,30.79
2018-07-01T12:27:38.016Z,27.06
2018-07-01T12:30:09.314Z,27.51
2018-07-01T12:32:38.893Z,28.35
2018-07-01T12:35:08.647Z,28.67
2018-07-01T12:37:37.999Z,29.08
2018-07-01T12:40:08.573Z,28.70
2018-07-01T12:42:37.966Z,29.24
2018-07-01T12:45:07.360Z,28.62
2018-07-01T12:47:36.720Z,28.97
2018-07-01T12:50:06.048Z,28.29
2018-07-01T12:52:35.393Z,26.58
2018-07-01T12:55:04.756Z,27.38
2018-07-01T12:57:34.141Z,28.39
2018-07-01T13:00:03.304Z,27.75
2018-07-01T13:02:32.643Z,28.27
2018-07-01T13:05:01.967Z,27.51
2018-07-01T13:07:31.299Z,28.95
2018-07-01T13:10:00.658Z,28.99
2018-07-01T13:12:30.008Z,26.53
2018-07-01T13:14:59.352Z,28.30
2018-07-01T13:17:28.693Z,28.51
2018-07-01T13:19:58.025Z,27.65
2018-07-01T13:22:27.372Z,26.15
2018-07-01T13:24:56.696Z,26.85
2018-07-01T13:27:26.021Z,26.59
2018-07-01T13:29:55.356Z,26.53
2018-07-01T13:32:24.703Z,26.52
2018-07-01T13:34:54.027Z,27.03
2018-07-01T13:37:23.360Z,25.97
2018-07-01T13:39:52.684Z,24.33
2018-07-01T13:42:22.024Z,26.15
2018-07-01T13:44:51.345Z,26.07
2018-07-01T13:47:20.420Z,26.07
2018-07-01T13:49:49.843Z,25.92
2018-07-01T13:52:19.124Z,27.75
2018-07-01T13:54:48.452Z,25.36
2018-07-01T13:57:17.782Z,26.73
2018-07-01T13:59:47.107Z,26.43
2018-07-01T14:02:16.449Z,24.83
2018-07-01T14:04:45.772Z,25.50
2018-07-01T14:07:15.122Z,25.26
2018-07-01T14:09:44.537Z,24.39
2018-07-01T14:12:13.771Z,24.32
2018-07-01T14:14:43.113Z,24.46
2018-07-01T14:17:12.469Z,22.53
2018-07-01T14:19:41.795Z,23.04
2018-07-01T14:22:11.142Z,22.11
2018-07-01T14:24:40.469Z,23.68
2018-07-01T14:27:09.890Z,21.01
2018-07-01T14:29:39.180Z,22.36
2018-07-01T14:32:08.587Z,22.22
2018-07-01T14:34:38.162Z,22.06
2018-07-01T14:37:11.586Z,21.49
2018-07-01T14:39:41.606Z,21.65
2018-07-01T14:42:11.299Z,21.60
2018-07-01T14:44:40.616Z,22.65
2018-07-01T14:47:09.939Z,21.98
2018-07-01T14:49:39.264Z,22.63
2018-07-01T14:52:08.922Z,21.18
2018-07-01T14:54:38.292Z,21.69
2018-07-01T14:57:07.364Z,21.57
2018-07-01T14:59:36.704Z,21.89
2018-07-01T15:02:06.322Z,21.08
2018-07-01T15:04:35.657Z,20.50
2018-07-01T15:07:05.013Z,20.94
2018-07-01T15:09:34.343Z,21.02
2018-07-01T15:12:03.682Z,22.27
2018-07-01T15:14:33.008Z,21.63
2018-07-01T15:17:02.377Z,21.46
2018-07-01T15:19:31.719Z,22.04
2018-07-01T15:22:01.113Z,22.97
2018-07-01T15:42:40.552Z,21.19
2018-07-01T15:45:09.944Z,21.73
2018-07-01T15:47:39.285Z,22.82
2018-07-01T15:50:09.022Z,23.19
2018-07-01T15:52:38.346Z,23.90
2018-07-01T15:55:07.687Z,24.06
2018-07-01T15:57:37.725Z,23.57
2018-07-01T16:00:08.044Z,23.85
2018-07-01T16:04:49.200Z,24.99
2018-07-01T16:07:18.283Z,25.06
2018-07-01T16:09:47.632Z,24.98
2018-07-01T16:12:16.996Z,25.21
2018-07-01T16:14:46.345Z,26.31
2018-07-01T16:17:15.685Z,25.87
2018-07-01T16:19:45.041Z,26.38
2018-07-01T16:22:14.378Z,25.92
2018-07-01T16:24:49.121Z,26.30
2018-07-01T16:27:22.529Z,26.83
2018-07-01T16:29:51.864Z,26.14
2018-07-01T16:32:21.220Z,26.73
2018-07-01T16:34:50.311Z,27.02
2018-07-01T16:37:19.640Z,27.20
2018-07-01T16:39:48.985Z,27.69
2018-07-01T16:42:18.326Z,27.28
2018-07-01T16:44:47.415Z,26.11
2018-07-01T16:47:16.512Z,26.56
2018-07-01T16:49:45.599Z,26.58
2018-07-01T16:52:14.933Z,26.55
2018-07-01T16:54:44.301Z,27.46
2018-07-01T16:57:13.640Z,28.21
2018-07-01T16:59:42.973Z,27.84
2018-07-01T17:02:12.361Z,28.11
2018-07-01T17:04:41.730Z,27.48
2018-07-01T17:07:11.051Z,27.73
2018-07-01T17:09:40.400Z,28.41
2018-07-01T17:12:09.740Z,28.09
2018-07-01T17:14:39.081Z,28.00
2018-07-01T17:17:08.417Z,27.45
2018-07-01T17:19:37.516Z,27.62
2018-07-01T17:22:07.661Z,28.08
2018-07-01T17:24:36.992Z,27.37
2018-07-01T17:27:06.369Z,27.62
2018-07-01T17:29:35.704Z,27.95
2018-07-01T17:32:10.377Z,28.31
2018-07-01T17:34:39.738Z,28.58
2018-07-01T17:37:09.079Z,28.58
2018-07-01T17:39:38.418Z,28.40
2018-07-01T17:42:08.985Z,27.44
2018-07-01T17:44:41.744Z,28.40
2018-07-01T17:47:11.220Z,28.89
2018-07-01T17:49:40.757Z,29.55
2018-07-01T17:52:10.345Z,29.74
2018-07-01T17:54:39.708Z,29.99
2018-07-01T17:57:09.061Z,30.73
2018-07-01T17:59:38.401Z,29.81
2018-07-01T18:02:09.005Z,29.25
2018-07-01T18:04:38.344Z,30.09
2018-07-01T18:07:07.701Z,29.88
2018-07-01T18:09:37.078Z,29.44
2018-07-01T18:12:06.797Z,29.82
2018-07-01T18:14:36.164Z,29.88
2018-07-01T18:17:05.552Z,30.31
2018-07-01T18:19:34.636Z,29.02
2018-07-01T18:22:27.955Z,29.53
2018-07-01T18:24:58.065Z,29.90
2018-07-01T18:27:05.740Z,29.85
2018-07-01T18:29:35.077Z,29.29
2018-07-01T18:32:04.420Z,29.88
2018-07-01T18:34:33.769Z,30.36
2018-07-01T18:37:03.091Z,30.31
2018-07-01T18:39:32.464Z,30.27
2018-07-01T18:42:01.811Z,30.09
2018-07-01T18:44:31.185Z,31.05
2018-07-01T18:47:00.533Z,31.10
2018-07-01T18:49:29.892Z,32.22
2018-07-01T18:51:59.213Z,33.25
2018-07-01T18:54:28.302Z,34.40
2018-07-01T18:56:57.653Z,35.76
2018-07-01T18:59:27.000Z,36.80
2018-07-01T19:01:56.393Z,37.07
2018-07-01T19:04:25.745Z,37.01
2018-07-01T19:06:55.127Z,37.51
2018-07-01T19:09:24.426Z,38.92
2018-07-01T19:11:53.530Z,38.64
2018-07-01T19:14:22.864Z,39.63
2018-07-01T19:16:52.222Z,39.17
2018-07-01T19:19:21.568Z,39.12
2018-07-01T19:21:50.896Z,40.32
2018-07-01T19:24:20.245Z,40.08
2018-07-01T19:26:49.604Z,41.45
2018-07-01T19:29:18.949Z,41.76
2018-07-01T19:31:48.273Z,42.54
2018-07-01T19:34:17.627Z,42.17
2018-07-01T19:36:46.808Z,43.01
2018-07-01T19:39:16.168Z,43.63
2018-07-01T19:41:45.508Z,43.69
2018-07-01T19:44:14.855Z,44.14
2018-07-01T19:46:44.196Z,45.01
2018-07-01T19:49:13.541Z,45.31
2018-07-01T19:51:42.886Z,45.87
2018-07-01T19:54:12.294Z,46.94
2018-07-01T19:56:41.624Z,47.26
2018-07-01T19:59:10.723Z,47.60
2018-07-01T20:01:39.829Z,47.66
2018-07-01T20:04:09.256Z,47.78
2018-07-01T20:06:38.618Z,48.04
2018-07-01T20:09:08.676Z,48.15
2018-07-01T20:11:38.143Z,48.78
2018-07-01T20:14:08.382Z,48.31
2018-07-01T20:16:37.745Z,48.47
2018-07-01T20:19:07.113Z,47.96
2018-07-01T20:21:36.462Z,48.24
2018-07-01T20:24:05.876Z,48.66
2018-07-01T20:26:34.980Z,48.72
2018-07-01T20:29:04.349Z,48.71
2018-07-01T20:31:33.683Z,49.18
2018-07-01T20:34:03.040Z,48.02
2018-07-01T20:36:32.381Z,47.92
2018-07-01T20:39:01.725Z,48.23
2018-07-01T20:41:31.082Z,48.30
2018-07-01T20:44:00.431Z,47.90
2018-07-01T20:46:29.813Z,47.58
2018-07-01T20:48:59.152Z,49.09
2018-07-01T20:51:28.480Z,48.60
2018-07-01T20:53:57.576Z,49.06
2018-07-01T20:56:26.908Z,48.68
2018-07-01T20:58:56.911Z,48.91
2018-07-01T21:01:26.805Z,48.54
2018-07-01T21:03:55.953Z,48.06
2018-07-01T21:06:25.364Z,47.86
2018-07-01T21:08:54.716Z,47.36
2018-07-01T21:11:24.073Z,46.83
2018-07-01T21:13:53.412Z,46.06
2018-07-01T21:16:22.788Z,45.75
2018-07-01T21:18:52.168Z,45.85
2018-07-01T21:21:21.517Z,45.75
2018-07-01T21:23:50.865Z,45.19
2018-07-01T21:26:20.206Z,44.91
2018-07-01T21:28:49.312Z,45.19
2018-07-01T21:31:18.686Z,45.40
2018-07-01T21:33:48.071Z,45.67
2018-07-01T21:36:17.449Z,45.05
2018-07-01T21:38:46.792Z,45.08
2018-07-01T21:41:16.165Z,46.04
2018-07-01T21:43:45.513Z,45.88
2018-07-01T21:46:14.602Z,45.95
2018-07-01T21:48:44.020Z,44.75
2018-07-01T21:51:13.374Z,45.43
2018-07-01T21:53:42.753Z,46.06
2018-07-01T21:56:12.130Z,46.06
2018-07-01T21:58:41.500Z,45.78
2018-07-01T22:01:10.956Z,45.26
2018-07-01T22:03:40.295Z,46.07
2018-07-01T22:06:09.657Z,45.89
2018-07-01T22:08:39.318Z,45.23
2018-07-01T22:11:54.956Z,46.52
2018-07-01T22:14:27.337Z,45.46
2018-07-01T22:16:56.901Z,45.83
2018-07-01T22:19:26.112Z,46.01
2018-07-01T22:21:56.110Z,46.77
2018-07-01T22:24:25.745Z,46.77
2018-07-01T22:26:55.072Z,46.49
2018-07-01T22:29:24.456Z,45.75
2018-07-01T22:31:53.804Z,46.46
2018-07-01T22:34:23.540Z,45.94
2018-07-01T22:36:53.133Z,45.81
2018-07-01T22:39:25.433Z,46.25
2018-07-01T22:41:55.649Z,46.00
2018-07-01T22:44:24.980Z,46.04
2018-07-01T22:46:54.854Z,46.82
2018-07-01T22:49:24.191Z,46.96
2018-07-01T22:51:53.636Z,47.47
2018-07-01T22:54:22.977Z,47.04
2018-07-01T22:56:52.333Z,47.09
2018-07-01T22:59:21.416Z,46.72
2018-07-01T23:03:08.875Z,46.23
2018-07-01T23:05:38.208Z,45.88
2018-07-01T23:10:05.838Z,46.37
2018-07-01T23:12:34.948Z,46.43
2018-07-01T23:15:04.505Z,46.50
2018-07-01T23:17:33.861Z,46.01
2018-07-01T23:20:03.254Z,46.39
2018-07-01T23:22:32.367Z,45.91
2018-07-01T23:25:01.810Z,46.59
2018-07-01T23:27:30.831Z,46.71
2018-07-01T23:30:00.177Z,47.15
2018-07-01T23:32:30.080Z,47.22
2018-07-01T23:34:59.461Z,46.67
2018-07-01T23:37:28.671Z,46.18
2018-07-01T23:39:58.260Z,46.18
2018-07-01T23:42:27.339Z,46.05
2018-07-01T23:44:56.696Z,45.35
2018-07-01T23:47:26.032Z,45.96
2018-07-01T23:49:55.388Z,46.01
2018-07-01T23:52:24.776Z,46.15
2018-07-01T23:54:54.120Z,46.31
2018-07-01T23:57:23.476Z,46.45
2018-07-01T23:59:52.821Z,46.89
